sensor_id;sensor_type;location;lat;lon;timestamp;temperature;humidity
45383;DHT22;42455;51.660;5.824;2023-05-15T00:00:17;14.9;89.0
45383;DHT22;42455;51.660;5.824;2023-05-15T00:05:23;14.9;89.0
45383;DHT22;42455;51.660;5.824;2023-05-15T00:10:29;14.8;89.5
45383;DHT22;42455;51.660;5.824;2023-05-15T00:15:36;14.8;89.5
45383;DHT22;42455;51.660;5.824;2023-05-15T00:20:42;14.7;89.5
45383;DHT22;42455;51.660;5.824;2023-05-15T00:25:48;14.6;89.5
45383;DHT22;42455;51.660;5.824;2023-05-15T00:30:54;14.6;90.0
45383;DHT22;42455;51.660;5.824;2023-05-15T00:36:00;14.5;90.0
45383;DHT22;42455;51.660;5.824;2023-05-15T00:41:09;14.5;90.0
45383;DHT22;42455;51.660;5.824;2023-05-15T00:46:13;14.4;90.0
45383;DHT22;42455;51.660;5.824;2023-05-15T00:51:19;14.4;90.5
45383;DHT22;42455;51.660;5.824;2023-05-15T00:56:28;14.3;90.5
45383;DHT22;42455;51.660;5.824;2023-05-15T01:01:32;14.3;90.5
45383;DHT22;42455;51.660;5.824;2023-05-15T01:06:38;14.3;90.5
45383;DHT22;42455;51.660;5.824;2023-05-15T01:11:45;14.3;90.5
45383;DHT22;42455;51.660;5.824;2023-05-15T01:16:50;14.3;90.5
45383;DHT22;42455;51.660;5.824;2023-05-15T01:22:33;14.2;90.5
45383;DHT22;42455;51.660;5.824;2023-05-15T01:27:42;14.2;90.5
45383;DHT22;42455;51.660;5.824;2023-05-15T01:32:18;14.1;90.5
45383;DHT22;42455;51.660;5.824;2023-05-15T01:37:18;14.1;91.0
45383;DHT22;42455;51.660;5.824;2023-05-15T01:42:25;14.1;91.0
45383;DHT22;42455;51.660;5.824;2023-05-15T01:47:34;14.0;91.0
45383;DHT22;42455;51.660;5.824;2023-05-15T01:52:37;14.0;91.0
45383;DHT22;42455;51.660;5.824;2023-05-15T01:57:40;14.0;91.5
45383;DHT22;42455;51.660;5.824;2023-05-15T02:02:46;13.9;91.5
45383;DHT22;42455;51.660;5.824;2023-05-15T02:07:51;13.9;91.5
45383;DHT22;42455;51.660;5.824;2023-05-15T02:12:58;13.9;91.5
45383;DHT22;42455;51.660;5.824;2023-05-15T02:18:04;13.9;91.5
45383;DHT22;42455;51.660;5.824;2023-05-15T02:23:10;13.9;91.5
45383;DHT22;42455;51.660;5.824;2023-05-15T02:28:20;13.8;91.5
45383;DHT22;42455;51.660;5.824;2023-05-15T02:33:34;13.8;91.5
45383;DHT22;42455;51.660;5.824;2023-05-15T02:38:30;13.8;91.5
45383;DHT22;42455;51.660;5.824;2023-05-15T02:43:35;13.7;91.5
45383;DHT22;42455;51.660;5.824;2023-05-15T02:48:40;13.7;91.5
45383;DHT22;42455;51.660;5.824;2023-05-15T02:53:46;13.6;91.5
45383;DHT22;42455;51.660;5.824;2023-05-15T02:58:52;13.6;91.5
45383;DHT22;42455;51.660;5.824;2023-05-15T03:09:05;13.5;92.0
45383;DHT22;42455;51.660;5.824;2023-05-15T03:14:11;13.4;92.0
45383;DHT22;42455;51.660;5.824;2023-05-15T03:19:17;13.4;92.0
45383;DHT22;42455;51.660;5.824;2023-05-15T03:24:23;13.4;92.0
45383;DHT22;42455;51.660;5.824;2023-05-15T03:29:30;13.3;92.0
45383;DHT22;42455;51.660;5.824;2023-05-15T03:34:36;13.3;92.0
45383;DHT22;42455;51.660;5.824;2023-05-15T03:39:42;13.2;92.5
45383;DHT22;42455;51.660;5.824;2023-05-15T03:44:49;13.2;92.5
45383;DHT22;42455;51.660;5.824;2023-05-15T03:49:54;13.1;92.5
45383;DHT22;42455;51.660;5.824;2023-05-15T03:55:01;13.2;93.0
45383;DHT22;42455;51.660;5.824;2023-05-15T04:00:08;13.1;93.0
45383;DHT22;42455;51.660;5.824;2023-05-15T04:05:14;13.1;93.0
45383;DHT22;42455;51.660;5.824;2023-05-15T04:10:19;13.1;93.5
45383;DHT22;42455;51.660;5.824;2023-05-15T04:15:25;13.1;93.5
45383;DHT22;42455;51.660;5.824;2023-05-15T04:20:32;13.1;93.5
45383;DHT22;42455;51.660;5.824;2023-05-15T04:25:38;13.1;93.5
45383;DHT22;42455;51.660;5.824;2023-05-15T04:30:44;13.0;93.5
45383;DHT22;42455;51.660;5.824;2023-05-15T04:35:50;13.0;93.5
45383;DHT22;42455;51.660;5.824;2023-05-15T04:40:57;13.0;94.0
45383;DHT22;42455;51.660;5.824;2023-05-15T04:46:03;13.1;94.0
45383;DHT22;42455;51.660;5.824;2023-05-15T04:51:09;13.1;94.0
45383;DHT22;42455;51.660;5.824;2023-05-15T04:56:15;13.2;94.0
45383;DHT22;42455;51.660;5.824;2023-05-15T05:01:21;13.2;94.0
45383;DHT22;42455;51.660;5.824;2023-05-15T05:06:28;13.3;94.0
45383;DHT22;42455;51.660;5.824;2023-05-15T05:11:34;13.4;94.0
45383;DHT22;42455;51.660;5.824;2023-05-15T05:16:41;13.4;94.0
45383;DHT22;42455;51.660;5.824;2023-05-15T05:21:46;13.5;94.0
45383;DHT22;42455;51.660;5.824;2023-05-15T05:26:52;13.5;94.0
45383;DHT22;42455;51.660;5.824;2023-05-15T05:31:59;13.5;94.0
45383;DHT22;42455;51.660;5.824;2023-05-15T05:37:05;13.5;93.5
45383;DHT22;42455;51.660;5.824;2023-05-15T05:42:11;13.5;93.5
45383;DHT22;42455;51.660;5.824;2023-05-15T05:47:17;13.4;93.0
45383;DHT22;42455;51.660;5.824;2023-05-15T05:52:24;13.4;93.0
45383;DHT22;42455;51.660;5.824;2023-05-15T05:57:30;13.4;93.0
45383;DHT22;42455;51.660;5.824;2023-05-15T06:02:36;13.4;93.0
45383;DHT22;42455;51.660;5.824;2023-05-15T06:07:42;13.4;93.5
45383;DHT22;42455;51.660;5.824;2023-05-15T06:12:48;13.5;93.5
45383;DHT22;42455;51.660;5.824;2023-05-15T06:17:55;13.6;93.5
45383;DHT22;42455;51.660;5.824;2023-05-15T06:23:01;13.8;93.5
45383;DHT22;42455;51.660;5.824;2023-05-15T06:33:13;14.0;93.0
45383;DHT22;42455;51.660;5.824;2023-05-15T06:38:19;14.2;93.0
45383;DHT22;42455;51.660;5.824;2023-05-15T06:43:26;14.5;93.0
45383;DHT22;42455;51.660;5.824;2023-05-15T06:48:32;14.7;92.5
45383;DHT22;42455;51.660;5.824;2023-05-15T06:53:39;14.9;92.0
45383;DHT22;42455;51.660;5.824;2023-05-15T06:58:44;15.2;92.0
45383;DHT22;42455;51.660;5.824;2023-05-15T07:03:50;15.4;92.0
45383;DHT22;42455;51.660;5.824;2023-05-15T07:08:57;15.8;91.5
45383;DHT22;42455;51.660;5.824;2023-05-15T07:14:03;16.1;91.0
45383;DHT22;42455;51.660;5.824;2023-05-15T07:19:09;16.2;90.0
45383;DHT22;42455;51.660;5.824;2023-05-15T07:24:15;16.4;89.5
45383;DHT22;42455;51.660;5.824;2023-05-15T07:29:22;16.5;89.5
45383;DHT22;42455;51.660;5.824;2023-05-15T07:34:28;16.7;89.0
45383;DHT22;42455;51.660;5.824;2023-05-15T07:39:34;17.0;88.5
45383;DHT22;42455;51.660;5.824;2023-05-15T07:44:40;17.2;87.5
45383;DHT22;42455;51.660;5.824;2023-05-15T07:49:46;17.4;87.5
45383;DHT22;42455;51.660;5.824;2023-05-15T07:54:53;17.6;86.5
45383;DHT22;42455;51.660;5.824;2023-05-15T07:59:58;17.8;86.5
45383;DHT22;42455;51.660;5.824;2023-05-15T08:05:04;18.1;85.5
45383;DHT22;42455;51.660;5.824;2023-05-15T08:10:10;18.3;85.0
45383;DHT22;42455;51.660;5.824;2023-05-15T08:15:16;18.5;84.5
45383;DHT22;42455;51.660;5.824;2023-05-15T08:20:23;18.6;84.0
45383;DHT22;42455;51.660;5.824;2023-05-15T08:25:29;18.7;83.5
45383;DHT22;42455;51.660;5.824;2023-05-15T08:30:35;18.9;83.5
45383;DHT22;42455;51.660;5.824;2023-05-15T08:35:41;19.1;83.0
45383;DHT22;42455;51.660;5.824;2023-05-15T08:40:49;19.3;82.0
45383;DHT22;42455;51.660;5.824;2023-05-15T08:45:54;19.4;81.0
45383;DHT22;42455;51.660;5.824;2023-05-15T08:51:00;19.4;80.0
45383;DHT22;42455;51.660;5.824;2023-05-15T08:56:06;19.4;79.5
45383;DHT22;42455;51.660;5.824;2023-05-15T09:01:14;19.4;79.0
45383;DHT22;42455;51.660;5.824;2023-05-15T09:06:19;19.3;78.5
45383;DHT22;42455;51.660;5.824;2023-05-15T09:11:25;19.3;78.5
45383;DHT22;42455;51.660;5.824;2023-05-15T09:16:31;19.4;79.0
45383;DHT22;42455;51.660;5.824;2023-05-15T09:21:37;19.5;79.5
45383;DHT22;42455;51.660;5.824;2023-05-15T09:26:44;19.7;79.0
45383;DHT22;42455;51.660;5.824;2023-05-15T09:31:50;19.9;78.5
45383;DHT22;42455;51.660;5.824;2023-05-15T09:36:56;20.1;78.5
45383;DHT22;42455;51.660;5.824;2023-05-15T09:42:08;20.2;78.5
45383;DHT22;42455;51.660;5.824;2023-05-15T09:47:09;20.5;78.0
45383;DHT22;42455;51.660;5.824;2023-05-15T09:52:15;20.7;77.5
45383;DHT22;42455;51.660;5.824;2023-05-15T09:57:21;20.8;77.0
45383;DHT22;42455;51.660;5.824;2023-05-15T10:02:28;20.9;76.0
45383;DHT22;42455;51.660;5.824;2023-05-15T10:07:34;21.0;75.5
45383;DHT22;42455;51.660;5.824;2023-05-15T10:12:39;21.1;75.5
45383;DHT22;42455;51.660;5.824;2023-05-15T10:17:46;21.2;75.5
45383;DHT22;42455;51.660;5.824;2023-05-15T10:22:53;21.3;75.5
45383;DHT22;42455;51.660;5.824;2023-05-15T10:27:58;21.4;74.5
45383;DHT22;42455;51.660;5.824;2023-05-15T10:33:06;21.4;74.5
45383;DHT22;42455;51.660;5.824;2023-05-15T10:38:11;21.4;73.5
45383;DHT22;42455;51.660;5.824;2023-05-15T10:43:19;21.3;73.0
45383;DHT22;42455;51.660;5.824;2023-05-15T10:48:23;21.4;73.5
45383;DHT22;42455;51.660;5.824;2023-05-15T10:53:31;21.4;72.5
45383;DHT22;42455;51.660;5.824;2023-05-15T10:58:35;21.3;72.5
45383;DHT22;42455;51.660;5.824;2023-05-15T11:03:43;21.2;72.5
45383;DHT22;42455;51.660;5.824;2023-05-15T11:08:48;21.1;73.0
45383;DHT22;42455;51.660;5.824;2023-05-15T11:19:00;20.8;73.0
45383;DHT22;42455;51.660;5.824;2023-05-15T11:29:17;20.6;74.0
45383;DHT22;42455;51.660;5.824;2023-05-15T11:34:27;20.5;74.5
45383;DHT22;42455;51.660;5.824;2023-05-15T11:39:25;20.4;75.0
45383;DHT22;42455;51.660;5.824;2023-05-15T11:44:31;20.3;75.5
45383;DHT22;42455;51.660;5.824;2023-05-15T11:49:37;20.2;76.0
45383;DHT22;42455;51.660;5.824;2023-05-15T11:54:43;20.2;76.5
45383;DHT22;42455;51.660;5.824;2023-05-15T11:59:52;20.2;76.0
45383;DHT22;42455;51.660;5.824;2023-05-15T12:04:56;20.1;76.5
45383;DHT22;42455;51.660;5.824;2023-05-15T12:10:02;20.1;76.5
45383;DHT22;42455;51.660;5.824;2023-05-15T12:15:09;20.0;77.0
45383;DHT22;42455;51.660;5.824;2023-05-15T12:20:16;19.9;77.0
45383;DHT22;42455;51.660;5.824;2023-05-15T12:25:21;19.9;77.5
45383;DHT22;42455;51.660;5.824;2023-05-15T12:30:27;19.8;77.5
45383;DHT22;42455;51.660;5.824;2023-05-15T12:35:34;19.7;77.5
45383;DHT22;42455;51.660;5.824;2023-05-15T12:40:39;19.7;78.0
45383;DHT22;42455;51.660;5.824;2023-05-15T12:45:45;19.5;78.0
45383;DHT22;42455;51.660;5.824;2023-05-15T12:50:52;19.4;78.5
45383;DHT22;42455;51.660;5.824;2023-05-15T12:55:58;19.3;79.0
45383;DHT22;42455;51.660;5.824;2023-05-15T13:01:04;19.2;79.0
45383;DHT22;42455;51.660;5.824;2023-05-15T13:06:10;19.2;79.5
45383;DHT22;42455;51.660;5.824;2023-05-15T13:11:16;19.1;79.5
45383;DHT22;42455;51.660;5.824;2023-05-15T13:16:25;19.1;79.5
45383;DHT22;42455;51.660;5.824;2023-05-15T13:21:29;19.0;80.0
45383;DHT22;42455;51.660;5.824;2023-05-15T13:26:35;19.0;80.5
45383;DHT22;42455;51.660;5.824;2023-05-15T13:31:41;19.1;81.0
45383;DHT22;42455;51.660;5.824;2023-05-15T13:36:46;19.2;81.0
45383;DHT22;42455;51.660;5.824;2023-05-15T13:41:53;19.4;81.0
45383;DHT22;42455;51.660;5.824;2023-05-15T13:46:59;19.4;80.5
45383;DHT22;42455;51.660;5.824;2023-05-15T13:52:05;19.5;80.5
45383;DHT22;42455;51.660;5.824;2023-05-15T13:57:11;19.4;80.0
45383;DHT22;42455;51.660;5.824;2023-05-15T14:02:18;19.4;80.5
45383;DHT22;42455;51.660;5.824;2023-05-15T14:07:24;19.5;80.5
45383;DHT22;42455;51.660;5.824;2023-05-15T14:12:30;19.6;81.0
45383;DHT22;42455;51.660;5.824;2023-05-15T14:17:36;19.7;81.0
45383;DHT22;42455;51.660;5.824;2023-05-15T14:22:42;19.8;80.5
45383;DHT22;42455;51.660;5.824;2023-05-15T14:27:49;19.9;80.5
45383;DHT22;42455;51.660;5.824;2023-05-15T14:32:55;20.0;80.0
45383;DHT22;42455;51.660;5.824;2023-05-15T14:38:03;20.0;79.5
45383;DHT22;42455;51.660;5.824;2023-05-15T14:43:07;19.8;79.0
45383;DHT22;42455;51.660;5.824;2023-05-15T14:48:14;19.7;78.5
45383;DHT22;42455;51.660;5.824;2023-05-15T14:53:20;19.5;79.0
45383;DHT22;42455;51.660;5.824;2023-05-15T14:58:26;19.4;79.0
45383;DHT22;42455;51.660;5.824;2023-05-15T15:03:32;19.4;79.5
45383;DHT22;42455;51.660;5.824;2023-05-15T15:08:38;19.3;79.5
45383;DHT22;42455;51.660;5.824;2023-05-15T15:13:45;19.2;80.0
45383;DHT22;42455;51.660;5.824;2023-05-15T15:18:51;19.1;80.5
45383;DHT22;42455;51.660;5.824;2023-05-15T15:23:57;19.0;80.5
45383;DHT22;42455;51.660;5.824;2023-05-15T15:29:03;18.9;80.5
45383;DHT22;42455;51.660;5.824;2023-05-15T15:34:09;18.8;81.0
45383;DHT22;42455;51.660;5.824;2023-05-15T15:39:16;18.8;81.0
45383;DHT22;42455;51.660;5.824;2023-05-15T15:44:22;18.8;81.5
45383;DHT22;42455;51.660;5.824;2023-05-15T15:49:29;18.8;82.0
45383;DHT22;42455;51.660;5.824;2023-05-15T15:54:34;18.7;81.5
45383;DHT22;42455;51.660;5.824;2023-05-15T15:59:40;18.7;81.5
45383;DHT22;42455;51.660;5.824;2023-05-15T16:04:47;18.7;81.0
45383;DHT22;42455;51.660;5.824;2023-05-15T16:09:53;18.6;81.0
45383;DHT22;42455;51.660;5.824;2023-05-15T16:14:59;18.4;81.0
45383;DHT22;42455;51.660;5.824;2023-05-15T16:20:06;18.3;80.5
45383;DHT22;42455;51.660;5.824;2023-05-15T16:25:11;18.1;81.0
45383;DHT22;42455;51.660;5.824;2023-05-15T16:30:18;17.9;81.5
45383;DHT22;42455;51.660;5.824;2023-05-15T16:35:24;17.8;81.5
45383;DHT22;42455;51.660;5.824;2023-05-15T16:40:30;17.7;81.5
45383;DHT22;42455;51.660;5.824;2023-05-15T16:45:36;17.5;82.0
45383;DHT22;42455;51.660;5.824;2023-05-15T16:50:42;17.4;82.0
45383;DHT22;42455;51.660;5.824;2023-05-15T16:55:49;17.2;82.0
45383;DHT22;42455;51.660;5.824;2023-05-15T17:00:55;17.1;82.5
45383;DHT22;42455;51.660;5.824;2023-05-15T17:06:01;17.0;82.5
45383;DHT22;42455;51.660;5.824;2023-05-15T17:11:08;16.9;82.5
45383;DHT22;42455;51.660;5.824;2023-05-15T17:16:14;16.8;83.0
45383;DHT22;42455;51.660;5.824;2023-05-15T17:21:20;16.7;83.0
45383;DHT22;42455;51.660;5.824;2023-05-15T17:26:26;16.6;83.0
45383;DHT22;42455;51.660;5.824;2023-05-15T17:31:32;16.5;83.0
45383;DHT22;42455;51.660;5.824;2023-05-15T17:36:38;16.4;83.0
45383;DHT22;42455;51.660;5.824;2023-05-15T17:41:45;16.3;83.0
45383;DHT22;42455;51.660;5.824;2023-05-15T17:46:51;16.3;83.0
45383;DHT22;42455;51.660;5.824;2023-05-15T17:51:57;16.2;83.0
45383;DHT22;42455;51.660;5.824;2023-05-15T17:57:03;16.1;83.0
45383;DHT22;42455;51.660;5.824;2023-05-15T18:02:09;16.0;83.0
45383;DHT22;42455;51.660;5.824;2023-05-15T18:07:16;16.0;83.5
45383;DHT22;42455;51.660;5.824;2023-05-15T18:12:22;15.9;83.5
45383;DHT22;42455;51.660;5.824;2023-05-15T18:17:28;15.8;83.5
45383;DHT22;42455;51.660;5.824;2023-05-15T18:22:34;15.7;84.0
45383;DHT22;42455;51.660;5.824;2023-05-15T18:27:40;15.7;84.0
45383;DHT22;42455;51.660;5.824;2023-05-15T18:32:47;15.6;84.5
45383;DHT22;42455;51.660;5.824;2023-05-15T18:37:53;15.5;85.0
45383;DHT22;42455;51.660;5.824;2023-05-15T18:42:59;15.4;85.0
45383;DHT22;42455;51.660;5.824;2023-05-15T18:48:05;15.3;85.5
45383;DHT22;42455;51.660;5.824;2023-05-15T18:53:12;15.3;86.0
45383;DHT22;42455;51.660;5.824;2023-05-15T18:58:18;15.2;86.5
45383;DHT22;42455;51.660;5.824;2023-05-15T19:03:23;15.2;87.0
45383;DHT22;42455;51.660;5.824;2023-05-15T19:08:29;15.2;87.0
45383;DHT22;42455;51.660;5.824;2023-05-15T19:13:35;15.1;87.5
45383;DHT22;42455;51.660;5.824;2023-05-15T19:18:42;15.1;87.5
45383;DHT22;42455;51.660;5.824;2023-05-15T19:23:49;15.1;87.5
45383;DHT22;42455;51.660;5.824;2023-05-15T19:28:54;15.0;88.0
45383;DHT22;42455;51.660;5.824;2023-05-15T19:33:59;15.0;88.0
45383;DHT22;42455;51.660;5.824;2023-05-15T19:39:05;15.0;88.0
45383;DHT22;42455;51.660;5.824;2023-05-15T19:44:12;14.9;88.5
45383;DHT22;42455;51.660;5.824;2023-05-15T19:49:18;14.9;88.5
45383;DHT22;42455;51.660;5.824;2023-05-15T19:54:24;14.8;89.0
45383;DHT22;42455;51.660;5.824;2023-05-15T19:59:30;14.7;89.5
45383;DHT22;42455;51.660;5.824;2023-05-15T20:04:36;14.7;89.5
45383;DHT22;42455;51.660;5.824;2023-05-15T20:09:43;14.6;89.5
45383;DHT22;42455;51.660;5.824;2023-05-15T20:14:49;14.5;89.5
45383;DHT22;42455;51.660;5.824;2023-05-15T20:19:55;14.4;90.0
45383;DHT22;42455;51.660;5.824;2023-05-15T20:25:01;14.4;90.0
45383;DHT22;42455;51.660;5.824;2023-05-15T20:30:08;14.3;90.0
45383;DHT22;42455;51.660;5.824;2023-05-15T20:35:14;14.3;90.0
45383;DHT22;42455;51.660;5.824;2023-05-15T20:40:20;14.2;90.0
45383;DHT22;42455;51.660;5.824;2023-05-15T20:45:26;14.1;90.0
45383;DHT22;42455;51.660;5.824;2023-05-15T20:50:32;14.1;90.0
45383;DHT22;42455;51.660;5.824;2023-05-15T20:55:39;14.1;90.5
45383;DHT22;42455;51.660;5.824;2023-05-15T21:00:45;14.0;90.5
45383;DHT22;42455;51.660;5.824;2023-05-15T21:05:51;14.0;90.5
45383;DHT22;42455;51.660;5.824;2023-05-15T21:10:57;14.0;90.5
45383;DHT22;42455;51.660;5.824;2023-05-15T21:16:04;14.0;90.5
45383;DHT22;42455;51.660;5.824;2023-05-15T21:21:10;14.0;90.5
45383;DHT22;42455;51.660;5.824;2023-05-15T21:26:16;13.9;90.5
45383;DHT22;42455;51.660;5.824;2023-05-15T21:31:22;13.9;90.5
45383;DHT22;42455;51.660;5.824;2023-05-15T21:36:28;13.9;90.0
45383;DHT22;42455;51.660;5.824;2023-05-15T21:41:35;13.8;90.0
45383;DHT22;42455;51.660;5.824;2023-05-15T21:46:41;13.7;89.5
45383;DHT22;42455;51.660;5.824;2023-05-15T21:51:47;13.6;89.5
45383;DHT22;42455;51.660;5.824;2023-05-15T21:56:53;13.5;89.0
45383;DHT22;42455;51.660;5.824;2023-05-15T22:01:59;13.4;89.0
45383;DHT22;42455;51.660;5.824;2023-05-15T22:07:06;13.3;89.0
45383;DHT22;42455;51.660;5.824;2023-05-15T22:12:55;13.2;89.0
45383;DHT22;42455;51.660;5.824;2023-05-15T22:17:18;13.1;89.0
45383;DHT22;42455;51.660;5.824;2023-05-15T22:22:24;13.0;89.0
45383;DHT22;42455;51.660;5.824;2023-05-15T22:27:30;12.9;89.0
45383;DHT22;42455;51.660;5.824;2023-05-15T22:32:37;12.9;89.0
45383;DHT22;42455;51.660;5.824;2023-05-15T22:37:43;12.8;89.5
45383;DHT22;42455;51.660;5.824;2023-05-15T22:42:49;12.8;89.5
45383;DHT22;42455;51.660;5.824;2023-05-15T22:47:55;12.8;89.5
45383;DHT22;42455;51.660;5.824;2023-05-15T22:53:01;12.8;89.0
45383;DHT22;42455;51.660;5.824;2023-05-15T22:58:08;12.8;89.0
45383;DHT22;42455;51.660;5.824;2023-05-15T23:03:14;12.7;89.0
45383;DHT22;42455;51.660;5.824;2023-05-15T23:08:35;12.7;89.0
45383;DHT22;42455;51.660;5.824;2023-05-15T23:13:26;12.7;89.0
45383;DHT22;42455;51.660;5.824;2023-05-15T23:18:32;12.7;89.0
45383;DHT22;42455;51.660;5.824;2023-05-15T23:23:39;12.7;88.5
45383;DHT22;42455;51.660;5.824;2023-05-15T23:28:45;12.6;88.5
45383;DHT22;42455;51.660;5.824;2023-05-15T23:33:51;12.6;88.5
45383;DHT22;42455;51.660;5.824;2023-05-15T23:38:57;12.5;88.5
45383;DHT22;42455;51.660;5.824;2023-05-15T23:44:04;12.5;88.5
45383;DHT22;42455;51.660;5.824;2023-05-15T23:49:10;12.5;88.0
45383;DHT22;42455;51.660;5.824;2023-05-15T23:54:16;12.5;88.0
45383;DHT22;42455;51.660;5.824;2023-05-15T23:59:22;12.4;88.0
